createdAt,value
2022-08-02T00:00:16.249Z,62.63
2022-08-02T00:02:45.233Z,63.10
2022-08-02T00:05:14.206Z,63.04
2022-08-02T00:07:44.120Z,63.17
2022-08-02T00:10:20.370Z,63.15
2022-08-02T00:12:53.232Z,63.24
2022-08-02T00:15:21.392Z,63.29
2022-08-02T00:17:49.456Z,63.24
2022-08-02T00:20:21.054Z,63.29
2022-08-02T00:22:49.184Z,63.54
2022-08-02T00:25:22.392Z,63.30
2022-08-02T00:31:24.833Z,63.36
2022-08-02T00:34:31.862Z,63.81
2022-08-02T00:37:16.116Z,63.75
2022-08-02T00:43:32.827Z,63.77
2022-08-02T00:46:48.389Z,63.67
2022-08-02T00:49:28.913Z,63.42
2022-08-02T00:52:06.007Z,63.61
2022-08-02T00:54:44.639Z,63.69
2022-08-02T01:01:13.917Z,63.33
2022-08-02T01:04:15.780Z,63.39
2022-08-02T01:07:13.938Z,63.13
2022-08-02T01:09:54.266Z,63.56
2022-08-02T01:12:33.291Z,63.50
2022-08-02T01:15:10.834Z,63.58
2022-08-02T01:17:57.848Z,63.81
2022-08-02T01:21:06.503Z,63.64
2022-08-02T01:24:03.718Z,63.89
2022-08-02T01:26:59.198Z,63.60
2022-08-02T01:29:48.162Z,63.93
2022-08-02T01:32:38.574Z,63.82
2022-08-02T01:35:23.462Z,63.90
2022-08-02T01:38:02.670Z,63.57
2022-08-02T01:40:42.092Z,63.78
2022-08-02T01:46:06.007Z,63.42
2022-08-02T01:49:00.427Z,63.48
2022-08-02T01:52:05.511Z,63.45
2022-08-02T01:54:55.878Z,63.49
2022-08-02T01:57:30.022Z,63.44
2022-08-02T02:00:11.211Z,64.92
2022-08-02T02:03:08.986Z,63.57
2022-08-02T02:06:04.583Z,63.60
2022-08-02T02:08:37.898Z,64.14
2022-08-02T02:12:06.296Z,63.96
2022-08-02T02:14:04.055Z,63.75
2022-08-02T02:16:34.521Z,63.87
2022-08-02T02:19:05.086Z,64.15
2022-08-02T02:21:35.136Z,63.98
2022-08-02T02:24:05.842Z,64.23
2022-08-02T02:26:37.364Z,64.16
2022-08-02T02:29:12.218Z,64.63
2022-08-02T02:31:43.944Z,64.83
2022-08-02T02:34:17.993Z,64.94
2022-08-02T02:36:52.511Z,65.65
2022-08-02T02:39:27.075Z,65.54
2022-08-02T02:41:58.637Z,65.47
2022-08-02T02:44:34.484Z,65.81
2022-08-02T02:47:04.959Z,65.83
2022-08-02T02:49:36.676Z,65.25
2022-08-02T02:52:06.793Z,65.26
2022-08-02T02:54:36.668Z,65.15
2022-08-02T02:57:06.615Z,65.66
2022-08-02T02:59:49.596Z,65.70
2022-08-02T03:02:19.083Z,65.50
2022-08-02T03:04:56.121Z,65.59
2022-08-02T03:07:27.848Z,65.93
2022-08-02T03:09:58.966Z,66.11
2022-08-02T03:12:31.920Z,66.00
2022-08-02T03:15:06.510Z,65.96
2022-08-02T03:17:44.823Z,66.12
2022-08-02T03:20:22.735Z,65.98
2022-08-02T03:22:51.122Z,65.91
2022-08-02T03:25:19.549Z,65.48
2022-08-02T03:27:48.246Z,65.64
2022-08-02T03:30:27.110Z,65.53
2022-08-02T03:32:59.721Z,65.70
2022-08-02T03:35:29.453Z,65.64
2022-08-02T03:37:59.013Z,65.21
2022-08-02T03:40:28.266Z,65.08
2022-08-02T03:42:58.653Z,65.16
2022-08-02T03:45:27.340Z,65.33
2022-08-02T03:47:59.169Z,64.93
2022-08-02T03:50:29.241Z,64.78
2022-08-02T03:52:57.962Z,64.92
2022-08-02T03:55:28.326Z,64.89
2022-08-02T03:57:56.622Z,64.96
2022-08-02T04:00:25.056Z,65.16
2022-08-02T04:02:55.370Z,65.09
2022-08-02T04:05:23.486Z,64.85
2022-08-02T04:08:37.209Z,64.97
2022-08-02T04:11:18.325Z,64.57
2022-08-02T04:13:46.557Z,64.37
2022-08-02T04:16:24.599Z,64.32
2022-08-02T04:18:57.108Z,64.37
2022-08-02T04:21:50.110Z,64.51
2022-08-02T04:24:24.428Z,66.88
2022-08-02T04:26:57.970Z,64.47
2022-08-02T04:29:41.732Z,64.55
2022-08-02T04:32:13.991Z,64.68
2022-08-02T04:34:47.438Z,64.74
2022-08-02T04:37:25.119Z,64.84
2022-08-02T04:39:56.812Z,64.92
2022-08-02T04:42:26.480Z,64.47
2022-08-02T04:44:58.032Z,64.83
2022-08-02T04:48:03.656Z,64.55
2022-08-02T04:50:16.601Z,64.90
2022-08-02T04:55:59.499Z,64.79
2022-08-02T04:58:46.040Z,64.98
2022-08-02T05:01:19.301Z,64.92
2022-08-02T05:03:47.291Z,64.56
2022-08-02T05:06:19.307Z,64.31
2022-08-02T05:08:53.187Z,64.14
2022-08-02T05:11:34.429Z,64.27
2022-08-02T05:14:08.229Z,63.98
2022-08-02T05:16:36.220Z,63.94
2022-08-02T05:19:04.390Z,61.55
2022-08-02T05:21:34.855Z,59.46
2022-08-02T05:24:02.866Z,59.01
2022-08-02T05:26:30.889Z,58.89
2022-08-02T05:29:06.928Z,59.38
2022-08-02T05:31:36.266Z,59.29
2022-08-02T05:34:11.714Z,56.98
2022-08-02T05:36:43.740Z,55.32
2022-08-02T05:39:18.705Z,54.55
2022-08-02T05:41:47.192Z,54.63
2022-08-02T05:44:15.304Z,56.12
2022-08-02T05:46:46.793Z,55.90
2022-08-02T05:49:16.228Z,55.33
2022-08-02T05:52:18.375Z,55.74
2022-08-02T05:54:50.591Z,55.68
2022-08-02T05:57:31.807Z,55.47
2022-08-02T06:00:06.569Z,53.67
2022-08-02T06:03:09.445Z,51.74
2022-08-02T06:05:42.145Z,49.13
2022-08-02T06:08:10.770Z,47.97
2022-08-02T06:10:44.720Z,47.46
2022-08-02T06:13:14.376Z,46.66
2022-08-02T06:15:52.940Z,46.57
2022-08-02T06:18:27.612Z,46.67
2022-08-02T06:22:35.356Z,46.89
2022-08-02T06:23:59.387Z,46.11
2022-08-02T06:26:28.508Z,46.57
2022-08-02T06:28:59.962Z,48.24
2022-08-02T06:31:28.090Z,49.78
2022-08-02T06:34:08.265Z,50.58
2022-08-02T06:36:50.383Z,49.95
2022-08-02T06:39:23.469Z,50.00
2022-08-02T06:41:53.142Z,50.29
2022-08-02T06:45:02.879Z,51.73
2022-08-02T06:47:34.870Z,53.11
2022-08-02T06:50:04.169Z,54.77
2022-08-02T06:52:38.379Z,55.41
2022-08-02T06:55:10.570Z,55.52
2022-08-02T07:00:41.573Z,55.88
2022-08-02T07:03:11.929Z,56.44
2022-08-02T07:09:24.671Z,55.74
2022-08-02T07:15:35.667Z,56.72
2022-08-02T07:18:17.972Z,57.01
2022-08-02T07:21:05.032Z,57.39
2022-08-02T07:23:58.074Z,57.49
2022-08-02T07:26:55.247Z,57.71
2022-08-02T07:32:48.239Z,57.37
2022-08-02T07:35:32.354Z,57.25
2022-08-02T07:38:02.986Z,57.43
2022-08-02T07:40:33.057Z,57.59
2022-08-02T07:43:05.660Z,57.88
2022-08-02T07:45:36.055Z,58.09
2022-08-02T07:48:05.174Z,58.07
2022-08-02T07:50:35.548Z,58.00
2022-08-02T07:53:03.822Z,57.99
2022-08-02T07:55:39.752Z,58.16
2022-08-02T07:58:13.079Z,58.33
2022-08-02T08:00:43.752Z,58.33
2022-08-02T08:03:12.229Z,58.11
2022-08-02T08:11:34.345Z,57.76
2022-08-02T08:14:07.816Z,58.10
2022-08-02T08:16:35.990Z,57.77
2022-08-02T08:19:05.465Z,57.50
2022-08-02T08:21:35.482Z,57.39
2022-08-02T08:24:04.834Z,57.58
2022-08-02T08:26:33.117Z,57.24
2022-08-02T08:29:03.257Z,57.21
2022-08-02T08:31:32.764Z,57.16
2022-08-02T08:34:00.799Z,57.23
2022-08-02T08:36:29.435Z,57.18
2022-08-02T08:39:00.359Z,57.41
2022-08-02T08:41:32.835Z,57.51
2022-08-02T08:44:01.011Z,56.99
2022-08-02T08:46:30.724Z,56.68
2022-08-02T08:49:31.771Z,56.43
2022-08-02T08:52:05.567Z,56.09
2022-08-02T08:54:38.904Z,56.12
2022-08-02T08:57:07.909Z,56.31
2022-08-02T08:59:42.011Z,55.96
2022-08-02T09:02:19.727Z,55.84
2022-08-02T09:04:54.851Z,56.19
2022-08-02T09:08:05.774Z,56.43
2022-08-02T09:10:44.420Z,56.08
2022-08-02T09:13:31.355Z,55.95
2022-08-02T09:16:13.071Z,55.77
2022-08-02T09:18:45.529Z,55.54
2022-08-02T09:21:16.899Z,55.41
2022-08-02T09:23:47.162Z,55.47
2022-08-02T09:26:23.953Z,55.33
2022-08-02T09:28:53.777Z,55.51
2022-08-02T09:31:26.557Z,55.62
2022-08-02T09:33:59.575Z,55.91
2022-08-02T09:36:38.184Z,55.91
2022-08-02T09:39:15.305Z,55.59
2022-08-02T09:41:45.438Z,55.57
2022-08-02T09:44:24.563Z,55.43
2022-08-02T09:46:54.682Z,55.09
2022-08-02T09:49:26.052Z,55.08
2022-08-02T09:51:57.809Z,55.03
2022-08-02T09:54:28.799Z,54.56
2022-08-02T09:57:00.017Z,54.55
2022-08-02T09:59:36.969Z,54.28
2022-08-02T10:02:17.387Z,54.33
2022-08-02T10:04:52.929Z,54.21
2022-08-02T10:07:26.044Z,54.37
2022-08-02T10:09:56.207Z,54.25
2022-08-02T10:12:24.428Z,54.09
2022-08-02T10:14:53.638Z,54.07
2022-08-02T10:17:25.670Z,53.77
2022-08-02T10:20:02.122Z,53.60
2022-08-02T10:22:35.497Z,53.62
2022-08-02T10:25:05.630Z,53.69
2022-08-02T10:28:02.581Z,53.24
2022-08-02T10:30:27.044Z,53.28
2022-08-02T10:33:00.260Z,53.19
2022-08-02T10:35:31.122Z,53.28
2022-08-02T10:38:06.609Z,53.12
2022-08-02T10:40:52.537Z,53.06
2022-08-02T10:43:48.868Z,52.52
2022-08-02T10:46:44.548Z,52.25
2022-08-02T10:52:17.365Z,52.38
2022-08-02T10:54:56.307Z,52.32
2022-08-02T10:57:26.405Z,52.34
2022-08-02T10:59:57.599Z,52.34
2022-08-02T11:02:37.435Z,52.81
2022-08-02T11:05:18.102Z,52.23
2022-08-02T11:07:54.375Z,51.94
2022-08-02T11:10:50.520Z,51.16
2022-08-02T11:13:20.523Z,52.37
2022-08-02T11:16:10.757Z,51.84
2022-08-02T11:19:20.413Z,51.68
2022-08-02T11:22:04.534Z,50.00
2022-08-02T11:24:34.193Z,51.98
2022-08-02T11:27:07.495Z,51.18
2022-08-02T11:30:01.025Z,50.84
2022-08-02T11:32:36.516Z,51.24
2022-08-02T11:35:07.003Z,51.54
2022-08-02T11:37:43.066Z,51.67
2022-08-02T11:40:19.516Z,51.69
2022-08-02T11:42:50.825Z,51.35
2022-08-02T11:45:29.253Z,51.00
2022-08-02T11:48:10.244Z,50.81
2022-08-02T11:50:40.255Z,50.98
2022-08-02T11:53:17.823Z,50.86
2022-08-02T11:55:45.703Z,51.07
2022-08-02T11:58:21.033Z,46.80
2022-08-02T12:00:49.468Z,51.11
2022-08-02T12:06:16.409Z,50.54
2022-08-02T12:08:54.284Z,50.45
2022-08-02T12:11:25.777Z,50.50
2022-08-02T12:14:11.247Z,50.07
2022-08-02T12:16:58.678Z,49.94
2022-08-02T12:19:27.911Z,49.80
2022-08-02T12:22:24.420Z,49.42
2022-08-02T12:24:56.945Z,50.30
2022-08-02T12:27:33.450Z,50.43
2022-08-02T12:30:10.871Z,50.80
2022-08-02T12:32:39.598Z,50.65
2022-08-02T12:35:13.230Z,50.76
2022-08-02T12:37:42.107Z,46.20
2022-08-02T12:40:31.855Z,49.08
2022-08-02T12:43:01.975Z,50.27
2022-08-02T12:45:39.281Z,50.38
2022-08-02T12:48:09.934Z,50.34
2022-08-02T12:50:45.668Z,50.31
2022-08-02T12:53:15.933Z,49.88
2022-08-02T12:55:59.841Z,49.66
2022-08-02T12:58:49.429Z,48.94
2022-08-02T13:01:23.792Z,49.92
2022-08-02T13:04:11.901Z,50.08
2022-08-02T13:06:45.073Z,49.99
2022-08-02T13:09:17.886Z,50.04
2022-08-02T13:11:48.325Z,49.93
2022-08-02T13:14:21.713Z,50.36
2022-08-02T13:16:51.530Z,50.97
2022-08-02T13:19:19.689Z,51.15
2022-08-02T13:22:02.811Z,51.04
2022-08-02T13:24:40.525Z,50.82
2022-08-02T13:27:24.972Z,50.57
2022-08-02T13:29:54.662Z,50.41
2022-08-02T13:32:39.249Z,46.53
2022-08-02T13:35:09.748Z,50.78
2022-08-02T13:37:47.774Z,50.56
2022-08-02T13:40:23.179Z,50.67
2022-08-02T13:42:56.115Z,50.01
2022-08-02T13:45:24.194Z,50.16
2022-08-02T13:48:05.010Z,50.02
2022-08-02T13:50:41.231Z,50.26
2022-08-02T13:53:09.112Z,49.96
2022-08-02T13:55:43.396Z,49.62
2022-08-02T13:58:11.486Z,49.55
2022-08-02T14:00:44.121Z,49.68
2022-08-02T14:03:13.773Z,49.62
2022-08-02T14:05:48.327Z,49.86
2022-08-02T14:08:26.752Z,49.89
2022-08-02T14:10:57.405Z,49.60
2022-08-02T14:13:28.109Z,49.75
2022-08-02T14:16:07.192Z,49.32
2022-08-02T14:18:44.875Z,49.57
2022-08-02T14:21:14.907Z,49.99
2022-08-02T14:23:51.975Z,50.01
2022-08-02T14:26:27.027Z,50.13
2022-08-02T14:28:58.648Z,49.78
2022-08-02T14:31:28.633Z,49.85
2022-08-02T14:34:21.233Z,49.37
2022-08-02T14:36:53.542Z,49.85
2022-08-02T14:39:43.306Z,48.17
2022-08-02T14:42:22.500Z,49.16
2022-08-02T14:44:50.556Z,48.80
2022-08-02T14:47:18.401Z,49.43
2022-08-02T14:50:05.268Z,49.52
2022-08-02T14:52:42.588Z,49.86
2022-08-02T14:55:12.975Z,49.68
2022-08-02T14:57:44.813Z,48.91
2022-08-02T15:00:17.818Z,49.06
2022-08-02T15:02:48.518Z,49.34
2022-08-02T15:05:17.908Z,49.73
2022-08-02T15:07:49.757Z,49.94
2022-08-02T15:10:18.791Z,49.54
2022-08-02T15:12:50.061Z,49.14
2022-08-02T15:15:26.033Z,49.31
2022-08-02T15:17:57.054Z,48.96
2022-08-02T15:20:26.461Z,49.07
2022-08-02T15:22:57.341Z,49.17
2022-08-02T15:25:27.482Z,49.23
2022-08-02T15:27:56.502Z,49.11
2022-08-02T15:30:27.056Z,48.92
2022-08-02T15:32:55.657Z,49.01
2022-08-02T15:35:26.929Z,48.99
2022-08-02T15:38:17.839Z,49.34
2022-08-02T15:40:45.777Z,49.59
2022-08-02T15:43:16.572Z,49.63
2022-08-02T15:45:47.414Z,49.32
2022-08-02T15:48:16.366Z,49.06
2022-08-02T15:50:48.378Z,48.90
2022-08-02T15:53:18.442Z,48.93
2022-08-02T15:56:05.449Z,48.58
2022-08-02T15:58:36.181Z,49.07
2022-08-02T16:01:12.679Z,48.57
2022-08-02T16:03:50.067Z,49.11
2022-08-02T16:06:25.229Z,48.69
2022-08-02T16:08:55.925Z,48.61
2022-08-02T16:11:26.607Z,48.97
2022-08-02T16:13:54.901Z,49.14
2022-08-02T16:16:23.984Z,49.33
2022-08-02T16:18:54.311Z,49.29
2022-08-02T16:21:24.812Z,49.11
2022-08-02T16:23:58.918Z,49.07
2022-08-02T16:26:34.865Z,49.19
2022-08-02T16:29:03.933Z,49.20
2022-08-02T16:31:31.850Z,49.08
2022-08-02T16:33:59.797Z,48.77
2022-08-02T16:36:35.034Z,49.03
2022-08-02T16:39:05.091Z,49.60
2022-08-02T16:41:51.226Z,49.48
2022-08-02T16:44:29.237Z,49.58
2022-08-02T16:47:00.933Z,49.79
2022-08-02T16:50:07.483Z,49.85
2022-08-02T16:52:19.705Z,49.73
2022-08-02T16:54:50.541Z,49.57
2022-08-02T16:57:20.050Z,49.51
2022-08-02T16:59:57.256Z,49.60
2022-08-02T17:02:26.360Z,49.87
2022-08-02T17:05:02.723Z,49.72
2022-08-02T17:08:08.014Z,49.64
2022-08-02T17:10:20.829Z,49.72
2022-08-02T17:12:51.224Z,49.90
2022-08-02T17:16:01.190Z,49.98
2022-08-02T17:18:26.418Z,49.58
2022-08-02T17:20:56.662Z,50.05
2022-08-02T17:24:03.963Z,49.86
2022-08-02T17:26:14.336Z,50.07
2022-08-02T17:29:16.403Z,50.38
2022-08-02T17:31:43.722Z,50.14
2022-08-02T17:34:18.246Z,50.03
2022-08-02T17:36:56.961Z,50.08
2022-08-02T17:39:33.575Z,50.01
2022-08-02T17:42:04.593Z,50.20
2022-08-02T17:44:49.316Z,50.37
2022-08-02T17:47:30.894Z,50.04
2022-08-02T17:50:04.981Z,50.29
2022-08-02T17:52:51.516Z,50.22
2022-08-02T17:55:22.508Z,50.07
2022-08-02T17:57:58.262Z,50.12
2022-08-02T18:00:36.603Z,49.98
2022-08-02T18:03:07.892Z,49.93
2022-08-02T18:05:40.449Z,50.05
2022-08-02T18:08:26.749Z,50.23
2022-08-02T18:10:56.789Z,50.21
2022-08-02T18:13:32.798Z,50.28
2022-08-02T18:16:01.209Z,50.74
2022-08-02T18:18:29.649Z,50.72
2022-08-02T18:21:16.183Z,50.47
2022-08-02T18:23:58.847Z,50.23
2022-08-02T18:26:33.573Z,50.21
2022-08-02T18:29:03.999Z,50.04
2022-08-02T18:31:39.364Z,50.54
2022-08-02T18:34:13.878Z,50.48
2022-08-02T18:36:47.383Z,50.34
2022-08-02T18:39:18.661Z,50.64
2022-08-02T18:41:50.354Z,50.73
2022-08-02T18:44:21.347Z,50.87
2022-08-02T18:46:53.737Z,50.65
2022-08-02T18:49:23.860Z,50.62
2022-08-02T18:51:57.899Z,50.81
2022-08-02T18:54:41.114Z,50.82
2022-08-02T18:58:16.919Z,50.96
2022-08-02T19:00:09.590Z,50.99
2022-08-02T19:02:41.445Z,51.03
2022-08-02T19:05:11.695Z,50.68
2022-08-02T19:07:49.873Z,50.81
2022-08-02T19:10:27.279Z,50.98
2022-08-02T19:12:56.647Z,51.05
2022-08-02T19:18:09.330Z,51.46
2022-08-02T19:20:40.196Z,51.53
2022-08-02T19:23:19.012Z,51.64
2022-08-02T19:26:00.361Z,49.88
2022-08-02T19:28:44.478Z,51.20
2022-08-02T19:31:24.298Z,51.52
2022-08-02T19:34:07.352Z,52.14
2022-08-02T19:36:36.829Z,52.26
2022-08-02T19:39:11.340Z,52.40
2022-08-02T19:41:46.977Z,52.39
2022-08-02T19:44:23.516Z,52.40
2022-08-02T19:46:59.186Z,52.41
2022-08-02T19:49:39.396Z,53.04
2022-08-02T19:52:21.268Z,53.11
2022-08-02T19:54:55.667Z,52.89
2022-08-02T19:57:42.072Z,53.08
2022-08-02T20:00:21.467Z,52.78
2022-08-02T20:03:03.596Z,53.20
2022-08-02T20:05:39.578Z,53.32
2022-08-02T20:08:08.003Z,53.02
2022-08-02T20:10:36.865Z,52.97
2022-08-02T20:13:04.823Z,52.89
2022-08-02T20:15:56.198Z,52.93
2022-08-02T20:21:34.196Z,53.03
2022-08-02T20:24:01.928Z,52.72
2022-08-02T20:26:30.467Z,53.17
2022-08-02T20:29:02.540Z,53.22
2022-08-02T20:31:40.981Z,52.86
2022-08-02T20:34:27.474Z,53.08
2022-08-02T20:36:55.831Z,53.20
2022-08-02T20:39:43.043Z,53.01
2022-08-02T20:42:23.842Z,52.98
2022-08-02T20:44:55.866Z,53.21
2022-08-02T20:47:39.312Z,53.03
2022-08-02T20:50:31.314Z,52.38
2022-08-02T20:53:01.916Z,53.00
2022-08-02T20:55:32.036Z,53.06
2022-08-02T21:00:58.557Z,52.94
2022-08-02T21:06:14.928Z,52.94
2022-08-02T21:08:46.278Z,52.34
2022-08-02T21:11:14.967Z,52.85
2022-08-02T21:13:46.558Z,52.97
2022-08-02T21:16:18.349Z,52.64
2022-08-02T21:18:55.834Z,52.93
2022-08-02T21:21:31.314Z,52.79
2022-08-02T21:24:00.136Z,53.03
2022-08-02T21:26:31.162Z,52.91
2022-08-02T21:31:49.252Z,53.29
2022-08-02T21:34:26.624Z,53.17
2022-08-02T21:36:55.111Z,53.08
2022-08-02T21:39:23.737Z,53.01
2022-08-02T21:41:51.593Z,52.81
2022-08-02T21:44:21.705Z,52.91
2022-08-02T21:46:53.972Z,52.71
2022-08-02T21:50:09.465Z,52.76
2022-08-02T21:52:16.361Z,53.03
2022-08-02T21:54:48.497Z,53.29
2022-08-02T21:57:18.532Z,53.30
2022-08-02T21:59:52.847Z,53.49
2022-08-02T22:02:30.644Z,53.58
2022-08-02T22:05:02.685Z,53.68
2022-08-02T22:07:38.216Z,53.92
2022-08-02T22:10:20.265Z,53.95
2022-08-02T22:12:48.536Z,54.07
2022-08-02T22:15:25.802Z,53.94
2022-08-02T22:18:03.917Z,54.25
2022-08-02T22:20:33.338Z,54.09
2022-08-02T22:23:12.807Z,54.24
2022-08-02T22:25:51.048Z,54.07
2022-08-02T22:28:51.730Z,54.11
2022-08-02T22:31:40.955Z,54.27
2022-08-02T22:34:11.643Z,54.48
2022-08-02T22:36:56.354Z,54.70
2022-08-02T22:39:24.328Z,54.96
2022-08-02T22:42:05.302Z,54.87
2022-08-02T22:44:37.646Z,54.85
2022-08-02T22:47:18.951Z,54.79
2022-08-02T22:49:54.376Z,54.50
2022-08-02T22:52:38.888Z,54.41
2022-08-02T22:55:07.800Z,54.48
2022-08-02T22:57:57.017Z,54.45
2022-08-02T22:59:05.337Z,53.01
2022-08-02T22:59:07.764Z,52.87
2022-08-02T23:00:25.533Z,54.69
2022-08-02T23:02:53.577Z,54.74
2022-08-02T23:05:23.159Z,54.83
2022-08-02T23:07:54.592Z,54.91
2022-08-02T23:10:23.048Z,55.16
2022-08-02T23:12:56.404Z,55.19
2022-08-02T23:15:25.057Z,55.13
2022-08-02T23:18:10.963Z,54.88
2022-08-02T23:20:41.099Z,55.38
2022-08-02T23:23:13.018Z,55.23
2022-08-02T23:25:40.937Z,55.29
2022-08-02T23:28:24.973Z,55.52
2022-08-02T23:30:54.934Z,55.39
2022-08-02T23:33:35.069Z,55.54
2022-08-02T23:36:25.656Z,55.60
2022-08-02T23:39:00.726Z,55.70
2022-08-02T23:41:28.713Z,55.73
2022-08-02T23:44:15.088Z,55.50
2022-08-02T23:46:44.512Z,55.54
2022-08-02T23:49:13.014Z,55.53
2022-08-02T23:51:40.975Z,55.58
2022-08-02T23:54:10.747Z,55.72
2022-08-02T23:56:39.306Z,55.97
2022-08-02T23:59:16.835Z,55.54
